Time;durP1;ratioP1;P1;durP2;ratioP2;P2;SDS_P1;SDS_P2;PMS_P1;PMS_P2;Temp;Humidity;BMP_temperature;BMP_pressure;BME280_temperature;BME280_humidity;BME280_pressure;Samples;Min_cycle;Max_cycle;Signal;HPM_P1;HPM_P2
2022/01/11 00:00:21;;;;;;;;;;;-4.10;99.90;;;;;;5060080;28;19975;-70
2022/01/11 00:02:50;;;;;;;;;;;-4.20;99.90;;;;;;5055000;28;19912;-70
2022/01/11 00:05:23;;;;;;;;;;;-4.10;99.90;;;;;;5054718;28;20023;-70
2022/01/11 00:07:50;;;;;;;;;;;-4.10;99.90;;;;;;5073275;28;20347;-69
2022/01/11 00:10:25;;;;;;;;;;;-4.10;99.90;;;;;;5064120;28;19913;-70
2022/01/11 00:12:51;;;;;;;;;;;-4.10;99.90;;;;;;5068776;28;19916;-72
2022/01/11 00:15:16;;;;;;;;;;;-4.20;99.90;;;;;;5072714;28;19961;-71
2022/01/11 00:17:42;;;;;;;;;;;-4.10;99.90;;;;;;5072896;28;20249;-69
2022/01/11 00:20:10;;;;;;;;;;;-4.10;99.90;;;;;;5071931;28;19913;-71
2022/01/11 00:22:48;;;;;;;;;;;-4.10;99.90;;;;;;5052882;28;19908;-71
2022/01/11 00:25:14;;;;;;;;;;;-4.10;99.90;;;;;;5054538;28;19951;-70
2022/01/11 00:27:39;;;;;;;;;;;-4.10;99.90;;;;;;5073116;28;19943;-69
2022/01/11 00:30:08;;;;;;;;;;;-4.20;99.90;;;;;;5072212;28;20360;-71
2022/01/11 00:32:41;;;;;;;;;;;-4.20;99.90;;;;;;5071018;28;19909;-70
2022/01/11 00:35:10;;;;;;;;;;;-4.10;99.90;;;;;;5072708;28;19916;-71
2022/01/11 00:37:36;;;;;;;;;;;-4.10;99.90;;;;;;5072902;28;20522;-69
2022/01/11 00:40:04;;;;;;;;;;;-4.10;99.90;;;;;;5071716;28;19920;-71
2022/01/11 00:42:30;;;;;;;;;;;-4.10;99.90;;;;;;5070411;28;19924;-70
2022/01/11 00:44:55;;;;;;;;;;;-4.10;99.90;;;;;;5072249;28;19924;-70
2022/01/11 00:47:21;;;;;;;;;;;-4.10;99.90;;;;;;5072388;28;19909;-70
2022/01/11 00:49:47;;;;;;;;;;;-3.80;99.90;;;;;;5072363;28;19919;-70
2022/01/11 00:52:12;;;;;;;;;;;-4.10;99.90;;;;;;5062519;28;19908;-70
2022/01/11 00:54:38;;;;;;;;;;;-4.10;99.90;;;;;;5072283;28;19912;-70
2022/01/11 00:57:04;;;;;;;;;;;-4.00;99.90;;;;;;5072292;28;20344;-70
2022/01/11 00:59:29;;;;;;;;;;;-4.10;99.90;;;;;;5072211;28;20356;-70
2022/01/11 01:01:55;;;;;;;;;;;-4.10;99.90;;;;;;5070953;28;20346;-70
2022/01/11 01:04:20;;;;;;;;;;;-4.00;99.90;;;;;;5072313;28;19916;-70
2022/01/11 01:06:46;;;;;;;;;;;-4.10;99.90;;;;;;5071981;28;19908;-70
2022/01/11 01:09:11;;;;;;;;;;;-4.10;99.90;;;;;;5053378;28;19965;-71
2022/01/11 01:11:37;;;;;;;;;;;-4.10;99.90;;;;;;5051632;28;20458;-70
2022/01/11 01:14:02;;;;;;;;;;;-4.10;99.90;;;;;;5072033;28;19917;-70
2022/01/11 01:16:28;;;;;;;;;;;-4.10;99.90;;;;;;5066833;28;20300;-69
2022/01/11 01:18:54;;;;;;;;;;;-4.10;99.90;;;;;;5052290;28;19958;-69
2022/01/11 01:21:20;;;;;;;;;;;-4.10;99.90;;;;;;5056087;28;19961;-70
2022/01/11 01:23:45;;;;;;;;;;;-4.10;99.90;;;;;;5071711;28;19965;-72
2022/01/11 01:26:11;;;;;;;;;;;-4.20;99.90;;;;;;5070683;28;20277;-70
2022/01/11 01:28:37;;;;;;;;;;;-4.10;99.90;;;;;;5071749;28;19920;-69
2022/01/11 01:31:03;;;;;;;;;;;-4.10;99.90;;;;;;5064231;28;19940;-70
2022/01/11 01:33:29;;;;;;;;;;;-4.10;99.90;;;;;;5059040;28;19967;-70
2022/01/11 01:36:01;;;;;;;;;;;-4.10;99.90;;;;;;5051348;28;20238;-71
2022/01/11 01:38:27;;;;;;;;;;;-4.00;99.90;;;;;;5058048;28;19956;-70
2022/01/11 01:40:58;;;;;;;;;;;-4.10;99.90;;;;;;5051474;28;19915;-71
2022/01/11 01:43:24;;;;;;;;;;;-4.20;99.90;;;;;;5066443;28;19960;-70
2022/01/11 01:45:51;;;;;;;;;;;-4.20;99.90;;;;;;5071013;28;20331;-71
2022/01/11 01:48:17;;;;;;;;;;;-4.10;99.90;;;;;;5071082;28;20497;-71
2022/01/11 01:50:43;;;;;;;;;;;-4.20;99.90;;;;;;5071721;28;19916;-70
2022/01/11 01:53:11;;;;;;;;;;;-4.20;99.90;;;;;;5063545;28;19912;-71
2022/01/11 01:55:39;;;;;;;;;;;-4.20;99.90;;;;;;5071003;28;19915;-70
2022/01/11 01:58:05;;;;;;;;;;;-4.10;99.90;;;;;;5071205;28;20340;-70
2022/01/11 02:00:30;;;;;;;;;;;-4.10;99.90;;;;;;5070857;28;20011;-70
2022/01/11 02:03:05;;;;;;;;;;;-4.10;99.90;;;;;;5059864;28;19915;-71
2022/01/11 02:05:31;;;;;;;;;;;-4.00;99.90;;;;;;5070372;28;19920;-70
2022/01/11 02:07:57;;;;;;;;;;;-4.00;99.90;;;;;;5071134;28;19961;-70
2022/01/11 02:10:22;;;;;;;;;;;-4.00;99.90;;;;;;5070842;28;19912;-71
2022/01/11 02:12:48;;;;;;;;;;;-4.10;99.90;;;;;;5059922;28;19908;-70
2022/01/11 02:15:14;;;;;;;;;;;-4.10;99.90;;;;;;5070238;28;19916;-72
2022/01/11 02:17:40;;;;;;;;;;;-4.10;99.90;;;;;;5070574;28;19912;-72
2022/01/11 02:20:05;;;;;;;;;;;-4.10;99.90;;;;;;5070714;28;20276;-71
2022/01/11 02:22:31;;;;;;;;;;;-4.20;99.90;;;;;;5048323;28;19921;-71
2022/01/11 02:24:57;;;;;;;;;;;-4.10;99.90;;;;;;5049648;28;19967;-70
2022/01/11 02:27:22;;;;;;;;;;;-4.20;99.90;;;;;;5062923;28;20012;-72
2022/01/11 02:29:48;;;;;;;;;;;-4.10;99.90;;;;;;5070533;28;19908;-72
2022/01/11 02:32:14;;;;;;;;;;;-4.20;99.90;;;;;;5067172;28;19915;-71
2022/01/11 02:34:39;;;;;;;;;;;-4.10;99.90;;;;;;5062610;28;19912;-71
2022/01/11 02:37:05;;;;;;;;;;;-4.10;99.90;;;;;;5070636;28;19909;-71
2022/01/11 02:39:31;;;;;;;;;;;-4.10;99.90;;;;;;5070518;28;19916;-71
2022/01/11 02:41:57;;;;;;;;;;;-4.20;99.90;;;;;;5070233;28;19924;-71
2022/01/11 02:44:23;;;;;;;;;;;-4.20;99.90;;;;;;5058600;28;19917;-70
2022/01/11 02:46:48;;;;;;;;;;;-4.20;99.90;;;;;;5070206;28;20003;-70
2022/01/11 02:49:14;;;;;;;;;;;-4.20;99.90;;;;;;5070296;28;20444;-71
2022/01/11 02:51:40;;;;;;;;;;;-4.20;99.90;;;;;;5070045;28;19934;-71
2022/01/11 02:54:05;;;;;;;;;;;-4.20;99.90;;;;;;5053846;28;20050;-71
2022/01/11 02:56:31;;;;;;;;;;;-4.10;99.90;;;;;;5054616;28;19924;-69
2022/01/11 02:58:57;;;;;;;;;;;-4.20;99.90;;;;;;5070137;28;19928;-70
2022/01/11 03:01:23;;;;;;;;;;;-4.10;99.90;;;;;;5065998;28;19912;-71
2022/01/11 03:03:48;;;;;;;;;;;-4.10;99.90;;;;;;5050885;28;19912;-70
2022/01/11 03:06:14;;;;;;;;;;;-4.20;99.90;;;;;;5069504;28;19953;-70
2022/01/11 03:08:44;;;;;;;;;;;-4.10;99.90;;;;;;5070431;28;19923;-70
2022/01/11 03:11:10;;;;;;;;;;;-4.10;99.90;;;;;;5069787;28;19908;-70
2022/01/11 03:13:38;;;;;;;;;;;-4.10;99.90;;;;;;5068810;28;19913;-70
2022/01/11 03:16:04;;;;;;;;;;;-4.10;99.90;;;;;;5050262;28;20003;-71
2022/01/11 03:18:30;;;;;;;;;;;-4.10;99.90;;;;;;5070076;28;19917;-70
2022/01/11 03:20:56;;;;;;;;;;;-4.10;99.90;;;;;;5070151;28;19904;-72
2022/01/11 03:23:21;;;;;;;;;;;-4.10;99.90;;;;;;5069214;28;19939;-70
2022/01/11 03:25:50;;;;;;;;;;;-4.10;99.90;;;;;;5049898;28;19922;-70
2022/01/11 03:28:16;;;;;;;;;;;-4.10;99.90;;;;;;5051893;28;20015;-69
2022/01/11 03:30:41;;;;;;;;;;;-4.10;99.90;;;;;;5052002;28;19974;-69
2022/01/11 03:33:08;;;;;;;;;;;-4.10;99.90;;;;;;5067441;28;19909;-71
2022/01/11 03:35:34;;;;;;;;;;;-4.10;99.90;;;;;;5063150;28;19926;-70
2022/01/11 03:38:00;;;;;;;;;;;-4.10;99.90;;;;;;5073926;28;20336;-69
2022/01/11 03:40:26;;;;;;;;;;;-4.10;99.90;;;;;;5073886;28;19919;-71
2022/01/11 03:42:52;;;;;;;;;;;-4.10;99.90;;;;;;5056927;28;19971;-70
2022/01/11 03:45:20;;;;;;;;;;;-4.10;99.90;;;;;;5068947;28;19924;-71
2022/01/11 03:47:45;;;;;;;;;;;-4.00;99.90;;;;;;5073539;28;19912;-70
2022/01/11 03:50:11;;;;;;;;;;;-4.10;99.90;;;;;;5073676;28;20030;-71
2022/01/11 03:52:38;;;;;;;;;;;-4.00;99.90;;;;;;5073534;28;19908;-70
2022/01/11 03:55:10;;;;;;;;;;;-4.00;99.90;;;;;;5067588;28;20387;-70
2022/01/11 03:57:36;;;;;;;;;;;-4.00;99.90;;;;;;5065833;28;19913;-71
2022/01/11 04:00:07;;;;;;;;;;;-4.00;99.90;;;;;;5055480;28;19909;-71
2022/01/11 04:02:33;;;;;;;;;;;-3.90;99.90;;;;;;5054739;28;19912;-72
2022/01/11 04:04:58;;;;;;;;;;;-3.80;99.90;;;;;;5061943;28;19943;-71
2022/01/11 04:07:25;;;;;;;;;;;-3.80;99.90;;;;;;5073157;28;19912;-71
2022/01/11 04:09:51;;;;;;;;;;;-3.90;99.90;;;;;;5073282;28;19915;-70
2022/01/11 04:12:17;;;;;;;;;;;-3.90;99.90;;;;;;5054967;28;20311;-71
2022/01/11 04:14:43;;;;;;;;;;;-3.80;99.90;;;;;;5071964;28;19912;-71
2022/01/11 04:17:09;;;;;;;;;;;-3.80;99.90;;;;;;5064165;28;20319;-70
2022/01/11 04:19:34;;;;;;;;;;;-3.80;99.90;;;;;;5073551;28;19912;-69
2022/01/11 04:22:00;;;;;;;;;;;-3.80;99.90;;;;;;5072263;28;19908;-69
2022/01/11 04:24:25;;;;;;;;;;;-3.80;99.90;;;;;;5071676;28;19923;-70
2022/01/11 04:26:51;;;;;;;;;;;-3.70;99.90;;;;;;5071307;28;19944;-71
2022/01/11 04:29:17;;;;;;;;;;;-3.70;99.90;;;;;;5072663;28;19909;-71
2022/01/11 04:31:43;;;;;;;;;;;-3.70;99.90;;;;;;5054656;28;19987;-72
2022/01/11 04:34:08;;;;;;;;;;;-3.80;99.90;;;;;;5072061;28;19959;-72
2022/01/11 04:36:34;;;;;;;;;;;-3.80;99.90;;;;;;5044080;28;20343;-68
2022/01/11 04:39:01;;;;;;;;;;;-3.70;99.90;;;;;;5072622;28;19962;-70
2022/01/11 04:41:26;;;;;;;;;;;-3.70;99.90;;;;;;5071661;28;19921;-70
2022/01/11 04:43:52;;;;;;;;;;;-3.80;99.90;;;;;;5072534;28;20352;-70
2022/01/11 04:46:18;;;;;;;;;;;-3.80;99.90;;;;;;5060850;28;20395;-71
2022/01/11 04:48:45;;;;;;;;;;;-3.70;99.90;;;;;;5061803;28;20276;-70
2022/01/11 04:51:10;;;;;;;;;;;-3.70;99.90;;;;;;5054466;28;19912;-71
2022/01/11 04:53:36;;;;;;;;;;;-3.70;99.90;;;;;;5067334;28;19917;-71
2022/01/11 04:56:02;;;;;;;;;;;-3.70;99.90;;;;;;5066648;28;19909;-71
2022/01/11 04:58:28;;;;;;;;;;;-3.80;99.90;;;;;;5072238;28;19958;-71
2022/01/11 05:00:53;;;;;;;;;;;-3.80;99.90;;;;;;5072002;28;19904;-70
2022/01/11 05:03:19;;;;;;;;;;;-3.80;99.90;;;;;;5063919;28;19916;-70
2022/01/11 05:05:45;;;;;;;;;;;-3.80;99.90;;;;;;5050305;28;19923;-71
2022/01/11 05:08:11;;;;;;;;;;;-3.80;99.90;;;;;;5050928;28;19985;-71
2022/01/11 05:10:42;;;;;;;;;;;-3.80;99.90;;;;;;5070426;28;20419;-70
2022/01/11 05:13:15;;;;;;;;;;;-3.80;99.90;;;;;;5051825;28;19912;-69
2022/01/11 05:15:41;;;;;;;;;;;-3.80;99.90;;;;;;5070415;28;19912;-71
2022/01/11 05:18:07;;;;;;;;;;;-3.80;99.90;;;;;;5070641;28;19915;-70
2022/01/11 05:20:33;;;;;;;;;;;-3.70;99.90;;;;;;5070134;28;19919;-70
2022/01/11 05:22:59;;;;;;;;;;;-3.70;99.90;;;;;;5036717;28;19916;-70
2022/01/11 05:25:24;;;;;;;;;;;-3.70;99.90;;;;;;5051410;28;19916;-71
2022/01/11 05:27:50;;;;;;;;;;;-3.70;99.90;;;;;;5067372;28;20295;-70
2022/01/11 05:30:16;;;;;;;;;;;-3.70;99.90;;;;;;5067355;28;19923;-70
2022/01/11 05:32:42;;;;;;;;;;;-3.60;99.90;;;;;;5066078;28;19909;-69
2022/01/11 05:35:10;;;;;;;;;;;-3.70;99.90;;;;;;5064292;28;20008;-70
2022/01/11 05:37:35;;;;;;;;;;;-3.60;99.90;;;;;;5065853;28;20329;-70
2022/01/11 05:40:01;;;;;;;;;;;-3.60;99.90;;;;;;5070292;28;19923;-70
2022/01/11 05:42:27;;;;;;;;;;;-3.70;99.90;;;;;;5037008;28;19917;-70
2022/01/11 05:44:53;;;;;;;;;;;-3.60;99.90;;;;;;5029988;28;19917;-71
2022/01/11 05:47:19;;;;;;;;;;;-3.60;99.90;;;;;;5030891;28;19955;-71
2022/01/11 05:49:44;;;;;;;;;;;-3.60;99.90;;;;;;5029398;28;19909;-71
2022/01/11 05:52:10;;;;;;;;;;;-3.60;99.90;;;;;;5020259;28;19915;-71
2022/01/11 05:54:36;;;;;;;;;;;-3.60;99.90;;;;;;5029651;28;20357;-71
2022/01/11 05:57:01;;;;;;;;;;;-3.60;99.90;;;;;;5030042;28;19968;-71
2022/01/11 05:59:27;;;;;;;;;;;-3.60;99.90;;;;;;5031192;28;19978;-71
2022/01/11 06:01:52;;;;;;;;;;;-3.70;99.90;;;;;;5025597;28;19996;-71
2022/01/11 06:04:18;;;;;;;;;;;-3.60;99.90;;;;;;5030449;28;19928;-70
2022/01/11 06:06:44;;;;;;;;;;;-3.60;99.90;;;;;;5046151;28;19905;-70
2022/01/11 06:09:09;;;;;;;;;;;-3.50;99.90;;;;;;5030611;28;19990;-71
2022/01/11 06:11:35;;;;;;;;;;;-3.50;99.90;;;;;;5028988;28;19966;-71
2022/01/11 06:14:00;;;;;;;;;;;-3.50;99.90;;;;;;5012643;28;19921;-71
2022/01/11 06:16:26;;;;;;;;;;;-3.50;99.90;;;;;;5029806;28;19960;-72
2022/01/11 06:18:52;;;;;;;;;;;-3.40;99.90;;;;;;5031018;28;19936;-71
2022/01/11 06:21:20;;;;;;;;;;;-3.50;99.90;;;;;;5029595;28;19968;-71
2022/01/11 06:23:46;;;;;;;;;;;-3.40;99.90;;;;;;5028851;28;19921;-71
2022/01/11 06:26:12;;;;;;;;;;;-3.30;99.90;;;;;;5025878;28;20296;-66
2022/01/11 06:28:38;;;;;;;;;;;-3.10;99.90;;;;;;5028612;28;19952;-65
2022/01/11 06:31:03;;;;;;;;;;;-3.10;99.90;;;;;;5030743;28;20363;-65
2022/01/11 06:33:29;;;;;;;;;;;-3.10;99.90;;;;;;5022039;28;19921;-65
2022/01/11 06:35:54;;;;;;;;;;;-3.10;99.90;;;;;;5010924;28;19968;-64
2022/01/11 06:38:20;;;;;;;;;;;-3.20;99.90;;;;;;5029562;28;19913;-65
2022/01/11 06:40:45;;;;;;;;;;;-3.20;99.90;;;;;;5027542;28;19913;-64
2022/01/11 06:43:11;;;;;;;;;;;-3.30;99.90;;;;;;5060173;28;20304;-64
2022/01/11 06:45:37;;;;;;;;;;;-3.30;99.90;;;;;;5068549;28;19920;-64
2022/01/11 06:48:03;;;;;;;;;;;-3.20;99.90;;;;;;5075986;28;20288;-64
2022/01/11 06:50:29;;;;;;;;;;;-3.20;99.90;;;;;;5065504;28;19957;-64
2022/01/11 06:52:55;;;;;;;;;;;-3.20;99.90;;;;;;5070113;28;19915;-64
2022/01/11 06:55:20;;;;;;;;;;;-3.10;99.90;;;;;;5068651;28;20253;-63
2022/01/11 06:57:46;;;;;;;;;;;-3.00;99.90;;;;;;5065903;28;20015;-64
2022/01/11 07:00:12;;;;;;;;;;;-2.90;99.90;;;;;;5049998;28;19916;-66
2022/01/11 07:02:38;;;;;;;;;;;-3.10;99.90;;;;;;5068368;28;19931;-65
2022/01/11 07:05:04;;;;;;;;;;;-3.10;99.90;;;;;;5068276;28;19920;-66
2022/01/11 07:07:30;;;;;;;;;;;-3.10;99.90;;;;;;5065237;28;20276;-66
2022/01/11 07:09:55;;;;;;;;;;;-3.10;99.90;;;;;;5064573;28;19912;-66
2022/01/11 07:12:21;;;;;;;;;;;-3.10;99.90;;;;;;5069400;28;19912;-66
2022/01/11 07:14:46;;;;;;;;;;;-3.00;99.90;;;;;;5068845;28;19928;-66
2022/01/11 07:17:12;;;;;;;;;;;-3.00;99.90;;;;;;5048092;28;19940;-66
2022/01/11 07:19:37;;;;;;;;;;;-2.90;99.90;;;;;;5063368;28;20302;-67
2022/01/11 07:22:03;;;;;;;;;;;-2.80;99.90;;;;;;5068445;28;19961;-67
2022/01/11 07:24:29;;;;;;;;;;;-2.80;99.90;;;;;;5048324;28;19990;-67
2022/01/11 07:26:55;;;;;;;;;;;-2.70;99.90;;;;;;5066626;28;19946;-68
2022/01/11 07:29:20;;;;;;;;;;;-2.70;99.90;;;;;;5070052;28;19920;-67
2022/01/11 07:31:46;;;;;;;;;;;-2.70;99.90;;;;;;5070435;28;19909;-67
2022/01/11 07:34:11;;;;;;;;;;;-2.70;99.90;;;;;;5062916;28;19920;-67
2022/01/11 07:36:37;;;;;;;;;;;-2.70;99.90;;;;;;5063712;28;19915;-65
2022/01/11 07:39:03;;;;;;;;;;;-2.80;99.90;;;;;;5068027;28;19917;-66
2022/01/11 07:41:29;;;;;;;;;;;-2.70;99.90;;;;;;5065396;28;19912;-65
2022/01/11 07:43:55;;;;;;;;;;;-2.70;99.90;;;;;;5066285;28;19916;-66
2022/01/11 07:46:20;;;;;;;;;;;-2.70;99.90;;;;;;5062792;28;19908;-67
2022/01/11 07:48:46;;;;;;;;;;;-2.80;99.90;;;;;;5063356;28;19912;-67
2022/01/11 07:51:12;;;;;;;;;;;-2.80;99.90;;;;;;5064234;28;19908;-67
2022/01/11 07:53:38;;;;;;;;;;;-2.80;99.90;;;;;;5065723;28;19920;-67
2022/01/11 07:56:03;;;;;;;;;;;-2.80;99.90;;;;;;5068271;28;20295;-68
2022/01/11 07:58:29;;;;;;;;;;;-2.80;99.90;;;;;;5064858;28;19926;-69
2022/01/11 08:00:55;;;;;;;;;;;-2.90;99.90;;;;;;5067249;28;20409;-67
2022/01/11 08:03:20;;;;;;;;;;;-2.80;99.90;;;;;;5066479;28;19916;-67
2022/01/11 08:05:47;;;;;;;;;;;-2.80;99.90;;;;;;5064503;28;20004;-68
2022/01/11 08:08:12;;;;;;;;;;;-2.80;99.90;;;;;;5064264;28;20256;-67
2022/01/11 08:10:38;;;;;;;;;;;-2.80;99.90;;;;;;5059224;28;19916;-66
2022/01/11 08:13:07;;;;;;;;;;;-2.80;99.90;;;;;;5048153;28;19923;-68
2022/01/11 08:15:34;;;;;;;;;;;-2.80;99.90;;;;;;5062212;28;19920;-66
2022/01/11 08:18:00;;;;;;;;;;;-2.80;99.90;;;;;;5064937;28;19951;-66
2022/01/11 08:20:25;;;;;;;;;;;-2.80;99.90;;;;;;5066765;28;19981;-66
2022/01/11 08:22:53;;;;;;;;;;;-2.70;99.90;;;;;;5067622;28;20585;-64
2022/01/11 08:25:19;;;;;;;;;;;-2.70;99.90;;;;;;5064041;28;19967;-63
2022/01/11 08:27:45;;;;;;;;;;;-2.70;99.90;;;;;;5068729;28;19944;-65
2022/01/11 08:30:10;;;;;;;;;;;-2.60;99.90;;;;;;5066323;28;19927;-70
2022/01/11 08:32:36;;;;;;;;;;;-2.60;99.90;;;;;;5063039;28;19962;-65
2022/01/11 08:35:02;;;;;;;;;;;-2.70;99.90;;;;;;5070227;28;19950;-65
2022/01/11 08:37:27;;;;;;;;;;;-2.60;99.90;;;;;;5047095;28;19917;-65
2022/01/11 08:39:53;;;;;;;;;;;-2.50;99.90;;;;;;5061464;28;19912;-65
2022/01/11 08:42:19;;;;;;;;;;;-2.50;99.90;;;;;;5050711;28;20338;-66
2022/01/11 08:44:46;;;;;;;;;;;-2.50;99.90;;;;;;5060326;28;20488;-65
2022/01/11 08:47:12;;;;;;;;;;;-2.50;99.90;;;;;;5062408;28;19917;-66
2022/01/11 08:49:38;;;;;;;;;;;-2.50;99.90;;;;;;5047324;28;19920;-67
2022/01/11 08:52:04;;;;;;;;;;;-2.50;99.90;;;;;;5060561;28;19908;-68
2022/01/11 08:54:29;;;;;;;;;;;-2.50;99.90;;;;;;5064168;28;19917;-66
2022/01/11 08:56:55;;;;;;;;;;;-2.50;99.90;;;;;;5067438;28;19919;-68
2022/01/11 08:59:22;;;;;;;;;;;-2.50;99.90;;;;;;5062338;28;19912;-65
2022/01/11 09:01:48;;;;;;;;;;;-2.60;99.90;;;;;;5060031;28;19908;-67
2022/01/11 09:04:13;;;;;;;;;;;-2.60;99.90;;;;;;5059052;28;20396;-65
2022/01/11 09:06:39;;;;;;;;;;;-2.60;99.90;;;;;;5061838;28;19913;-67
2022/01/11 09:09:05;;;;;;;;;;;-2.60;99.90;;;;;;5058701;28;19917;-65
2022/01/11 09:11:30;;;;;;;;;;;-2.60;99.90;;;;;;5058705;28;20015;-66
2022/01/11 09:13:56;;;;;;;;;;;-2.50;99.90;;;;;;5064098;28;19924;-65
2022/01/11 09:16:23;;;;;;;;;;;-2.60;99.90;;;;;;5062834;28;19993;-67
2022/01/11 09:18:49;;;;;;;;;;;-2.60;99.90;;;;;;5066312;28;19937;-66
2022/01/11 09:21:15;;;;;;;;;;;-2.50;99.90;;;;;;5066979;28;19911;-68
2022/01/11 09:23:41;;;;;;;;;;;-2.30;99.90;;;;;;5064645;28;20322;-67
2022/01/11 09:26:06;;;;;;;;;;;-2.20;99.90;;;;;;5066057;28;19916;-65
2022/01/11 09:28:32;;;;;;;;;;;-2.10;99.90;;;;;;5067565;28;19935;-66
2022/01/11 09:30:58;;;;;;;;;;;-2.00;99.90;;;;;;5061905;28;20018;-66
2022/01/11 09:33:23;;;;;;;;;;;-2.10;99.90;;;;;;5057142;28;20339;-66
2022/01/11 09:35:49;;;;;;;;;;;-2.00;99.90;;;;;;5065013;28;20300;-65
2022/01/11 09:38:15;;;;;;;;;;;-2.00;99.90;;;;;;5059390;28;19909;-66
2022/01/11 09:40:40;;;;;;;;;;;-1.90;99.90;;;;;;5060638;28;19920;-66
2022/01/11 09:43:06;;;;;;;;;;;-1.80;99.90;;;;;;5062519;28;19917;-66
2022/01/11 09:45:31;;;;;;;;;;;-1.70;99.90;;;;;;5061684;28;19928;-66
2022/01/11 09:47:57;;;;;;;;;;;-1.60;99.90;;;;;;5059883;28;19917;-65
2022/01/11 09:50:23;;;;;;;;;;;-1.50;99.90;;;;;;5063386;28;19920;-65
2022/01/11 09:52:49;;;;;;;;;;;-1.50;99.90;;;;;;5041747;28;19915;-66
2022/01/11 09:55:15;;;;;;;;;;;-1.40;99.90;;;;;;5060776;28;19912;-65
2022/01/11 09:57:41;;;;;;;;;;;-1.40;99.90;;;;;;5067724;28;20008;-66
2022/01/11 10:00:08;;;;;;;;;;;-1.40;99.90;;;;;;5056065;28;20043;-66
2022/01/11 10:02:34;;;;;;;;;;;-1.40;99.90;;;;;;5062205;28;19919;-66
2022/01/11 10:05:01;;;;;;;;;;;-1.40;99.90;;;;;;5059755;28;19924;-66
2022/01/11 10:07:28;;;;;;;;;;;-1.50;99.90;;;;;;5057904;28;20374;-65
2022/01/11 10:09:54;;;;;;;;;;;-1.50;99.90;;;;;;5064702;28;19917;-67
2022/01/11 10:12:22;;;;;;;;;;;-1.40;99.90;;;;;;5060277;28;19918;-66
2022/01/11 10:14:49;;;;;;;;;;;-1.40;99.90;;;;;;5064764;28;19912;-66
2022/01/11 10:17:20;;;;;;;;;;;-1.40;99.90;;;;;;5067053;28;19916;-66
2022/01/11 10:19:47;;;;;;;;;;;-1.30;99.90;;;;;;5056577;28;19912;-66
2022/01/11 10:22:20;;;;;;;;;;;-1.30;99.90;;;;;;5059674;28;19995;-66
2022/01/11 10:24:47;;;;;;;;;;;-1.40;99.90;;;;;;5065252;28;19998;-68
2022/01/11 10:27:13;;;;;;;;;;;-1.40;99.90;;;;;;5065148;28;20356;-68
2022/01/11 10:29:49;;;;;;;;;;;-1.50;99.90;;;;;;5065482;28;19928;-66
2022/01/11 10:32:19;;;;;;;;;;;-1.60;99.90;;;;;;5059031;28;19924;-67
2022/01/11 10:34:47;;;;;;;;;;;-1.50;99.90;;;;;;5062056;28;20283;-69
2022/01/11 10:37:13;;;;;;;;;;;-1.60;99.90;;;;;;5062644;28;20423;-69
2022/01/11 10:39:40;;;;;;;;;;;-1.50;99.90;;;;;;5063976;28;19920;-66
2022/01/11 10:42:14;;;;;;;;;;;-1.50;99.90;;;;;;5057059;28;19943;-67
2022/01/11 10:44:47;;;;;;;;;;;-1.60;99.90;;;;;;5055658;28;19932;-66
2022/01/11 10:47:17;;;;;;;;;;;-1.60;99.90;;;;;;5058618;28;19919;-66
2022/01/11 10:49:42;;;;;;;;;;;-3.30;99.90;;;;;;5061277;28;19920;-67
2022/01/11 10:52:19;;;;;;;;;;;-1.60;99.90;;;;;;5064416;28;19927;-68
2022/01/11 10:54:45;;;;;;;;;;;-1.60;99.90;;;;;;5060423;28;20633;-69
2022/01/11 10:57:15;;;;;;;;;;;-1.60;99.90;;;;;;5063987;28;19908;-68
2022/01/11 10:59:40;;;;;;;;;;;-1.70;99.90;;;;;;5064693;28;19916;-66
2022/01/11 11:02:12;;;;;;;;;;;-1.70;99.90;;;;;;5069110;28;20253;-66
2022/01/11 11:04:38;;;;;;;;;;;-1.70;99.90;;;;;;5067078;28;20035;-67
2022/01/11 11:07:14;;;;;;;;;;;-1.80;99.90;;;;;;5062636;28;19920;-67
2022/01/11 11:09:46;;;;;;;;;;;-1.80;99.90;;;;;;5065098;28;20368;-68
2022/01/11 11:12:12;;;;;;;;;;;-1.80;99.90;;;;;;5063862;28;20077;-68
2022/01/11 11:14:52;;;;;;;;;;;-1.80;99.90;;;;;;5062750;28;19920;-69
2022/01/11 11:17:27;;;;;;;;;;;-1.70;99.90;;;;;;5065257;28;19912;-66
2022/01/11 11:19:57;;;;;;;;;;;-1.60;99.90;;;;;;5065729;28;20371;-66
2022/01/11 11:22:24;;;;;;;;;;;-1.70;99.90;;;;;;5064160;28;19917;-67
2022/01/11 11:24:51;;;;;;;;;;;-1.70;99.90;;;;;;5060900;28;19924;-64
2022/01/11 11:27:16;;;;;;;;;;;-1.60;99.90;;;;;;5067344;28;20348;-65
2022/01/11 11:29:42;;;;;;;;;;;-1.60;99.90;;;;;;5069723;28;20006;-65
2022/01/11 11:32:08;;;;;;;;;;;-1.80;99.90;;;;;;5066883;28;19987;-65
2022/01/11 11:34:33;;;;;;;;;;;-1.80;99.90;;;;;;5058532;28;19939;-66
2022/01/11 11:37:05;;;;;;;;;;;-1.80;99.90;;;;;;5064744;28;19944;-66
2022/01/11 11:39:31;;;;;;;;;;;-1.70;99.90;;;;;;5050205;28;19988;-68
2022/01/11 11:41:59;;;;;;;;;;;-1.60;99.90;;;;;;5063033;28;19950;-65
2022/01/11 11:44:26;;;;;;;;;;;-1.60;99.90;;;;;;5063051;28;20269;-67
2022/01/11 11:46:52;;;;;;;;;;;-1.60;99.90;;;;;;5041973;28;20348;-67
2022/01/11 11:49:37;;;;;;;;;;;-1.50;99.90;;;;;;5063638;28;19923;-66
2022/01/11 11:52:23;;;;;;;;;;;-1.50;99.90;;;;;;5066962;28;20228;-67
2022/01/11 11:54:56;;;;;;;;;;;-1.40;99.90;;;;;;5065696;28;19913;-63
2022/01/11 11:57:22;;;;;;;;;;;-0.10;99.90;;;;;;5068931;28;20006;-66
2022/01/11 11:59:55;;;;;;;;;;;-0.90;99.90;;;;;;5070340;28;20707;-66
2022/01/11 12:02:31;;;;;;;;;;;-1.00;99.90;;;;;;5069831;28;20011;-66
2022/01/11 12:04:56;;;;;;;;;;;-1.20;99.90;;;;;;5066768;28;19924;-65
2022/01/11 12:07:31;;;;;;;;;;;-1.40;99.90;;;;;;5071530;28;20007;-67
2022/01/11 12:09:57;;;;;;;;;;;-1.40;99.90;;;;;;5072061;28;19912;-65
2022/01/11 12:12:54;;;;;;;;;;;-1.10;99.90;;;;;;5053166;28;20287;-65
2022/01/11 12:15:22;;;;;;;;;;;-1.10;99.90;;;;;;5038279;28;19960;-66
2022/01/11 12:17:58;;;;;;;;;;;-1.30;99.90;;;;;;5070537;28;19912;-65
2022/01/11 12:20:39;;;;;;;;;;;-1.50;99.90;;;;;;5065982;28;19958;-65
2022/01/11 12:23:05;;;;;;;;;;;-1.50;99.90;;;;;;5066759;28;19977;-66
2022/01/11 12:25:33;;;;;;;;;;;-1.60;99.90;;;;;;5068995;28;19924;-65
2022/01/11 12:28:02;;;;;;;;;;;-1.70;99.90;;;;;;5071657;28;20315;-65
2022/01/11 12:30:28;;;;;;;;;;;-1.80;99.90;;;;;;5050374;28;19951;-65
2022/01/11 12:33:09;;;;;;;;;;;-2.00;99.90;;;;;;5066370;28;19950;-66
2022/01/11 12:35:49;;;;;;;;;;;-2.10;99.90;;;;;;5055420;28;19927;-64
2022/01/11 12:38:15;;;;;;;;;;;-2.10;99.90;;;;;;5072455;28;20348;-67
2022/01/11 12:40:42;;;;;;;;;;;-2.00;99.90;;;;;;5068232;28;19916;-67
2022/01/11 12:43:19;;;;;;;;;;;-1.90;99.90;;;;;;5071172;28;20027;-66
2022/01/11 12:46:01;;;;;;;;;;;-1.80;99.90;;;;;;5063726;28;19924;-63
2022/01/11 12:48:45;;;;;;;;;;;-1.80;99.90;;;;;;5062347;28;20276;-65
2022/01/11 12:51:53;;;;;;;;;;;-1.70;99.90;;;;;;5065383;28;20022;-70
2022/01/11 12:54:21;;;;;;;;;;;-1.80;99.90;;;;;;4984968;28;19928;-67
2022/01/11 12:56:47;;;;;;;;;;;-2.00;99.90;;;;;;4986303;28;19910;-67
2022/01/11 12:59:14;;;;;;;;;;;-2.00;99.90;;;;;;5025498;28;19928;-67
2022/01/11 13:01:40;;;;;;;;;;;-2.10;99.90;;;;;;5067536;28;20380;-70
2022/01/11 13:04:05;;;;;;;;;;;-2.20;99.90;;;;;;5066919;28;19941;-70
2022/01/11 13:06:32;;;;;;;;;;;-2.30;99.90;;;;;;5062571;28;19952;-63
2022/01/11 13:08:59;;;;;;;;;;;-2.40;99.90;;;;;;5070275;28;19935;-65
2022/01/11 13:11:25;;;;;;;;;;;-2.60;99.90;;;;;;5050575;28;19965;-67
2022/01/11 13:14:06;;;;;;;;;;;-2.60;99.90;;;;;;5072691;28;20456;-68
2022/01/11 13:16:31;;;;;;;;;;;-2.60;99.90;;;;;;5067608;28;20054;-67
2022/01/11 13:19:10;;;;;;;;;;;-2.60;99.90;;;;;;5064960;28;19913;-67
2022/01/11 13:21:36;;;;;;;;;;;-2.60;99.90;;;;;;5067477;28;19930;-68
2022/01/11 13:24:12;;;;;;;;;;;-2.60;99.90;;;;;;5071674;28;20118;-70
2022/01/11 13:26:37;;;;;;;;;;;-2.70;99.90;;;;;;5067949;28;20542;-68
2022/01/11 13:29:03;;;;;;;;;;;-2.70;99.90;;;;;;5065470;28;20015;-67
2022/01/11 13:31:31;;;;;;;;;;;-2.70;99.90;;;;;;5066219;28;19955;-68
2022/01/11 13:34:00;;;;;;;;;;;-2.70;99.90;;;;;;5067358;28;19912;-67
2022/01/11 13:36:36;;;;;;;;;;;-2.70;99.90;;;;;;5065590;28;19916;-68
2022/01/11 13:39:09;;;;;;;;;;;-2.80;99.90;;;;;;5069154;28;19919;-67
2022/01/11 13:41:35;;;;;;;;;;;-3.00;99.90;;;;;;5064502;28;20369;-66
2022/01/11 13:44:04;;;;;;;;;;;-3.00;99.90;;;;;;5067784;28;19912;-67
2022/01/11 13:46:30;;;;;;;;;;;-3.10;99.90;;;;;;5046983;28;19917;-65
2022/01/11 13:48:56;;;;;;;;;;;-3.10;99.90;;;;;;5064073;28;20272;-68
2022/01/11 13:51:26;;;;;;;;;;;-3.00;99.90;;;;;;5042469;28;20653;-68
2022/01/11 13:54:02;;;;;;;;;;;-2.90;99.90;;;;;;5066335;28;20002;-65
2022/01/11 13:56:32;;;;;;;;;;;-3.00;99.90;;;;;;5064896;28;19963;-69
2022/01/11 13:58:58;;;;;;;;;;;-3.10;99.90;;;;;;5046701;28;19916;-68
2022/01/11 14:01:27;;;;;;;;;;;-3.20;99.90;;;;;;5066180;28;19919;-67
2022/01/11 14:04:08;;;;;;;;;;;-3.30;99.90;;;;;;5063323;28;19926;-68
2022/01/11 14:06:41;;;;;;;;;;;-3.20;99.90;;;;;;5064380;28;20004;-66
2022/01/11 14:09:11;;;;;;;;;;;-3.20;99.90;;;;;;5065190;28;20308;-63
2022/01/11 14:11:39;;;;;;;;;;;-3.10;99.90;;;;;;5064920;28;19916;-65
2022/01/11 14:14:06;;;;;;;;;;;-3.10;99.90;;;;;;5062416;28;19920;-65
2022/01/11 14:16:39;;;;;;;;;;;-3.20;99.90;;;;;;5065215;28;19915;-66